Current Weather

Jasper County

Rensselaer, Indiana (KRZL)

Report from: Friday, April 19, 2024 5:15 AM EDT
Current time: Friday, April 19, 2024 5:36 AM EDT

Nearby weather – Weather history – Daily summaries
Weather forecast

Temperature8.0°C (46.4°F)
Wind chill5.8°C (42.4°F)
Dew point7.0°C (44.6°F)
Winds 7 kts (3.6 m/s, 8.1 mph) Northwest (310°)
Visibility7 mi. (11.3 km)
Clouds Scattered clouds 1,600 ft. (488 m)
Ceiling: Broken clouds 2,100 ft. (640 m)
Overcast 3,800 ft. (1,158 m)
Altimeter30.03 in.Hg (1017 mB)
Relative humidity93 %
Density altitude-822 ft. (-250 m)
Remarks Fully automated report
Automated weather observing station with precipitation discriminator
Flight conditions Marginal Visual Meteorological Conditions
Raw dataKRZL 190915Z AUTO 31007KT 7SM SCT016 BKN021 OVC038 08/07 A3003 RMK AO2
An error has occurred. This application may no longer respond until reloaded. Reload 🗙